Terminal Aerodrome Forecast
Issued by NWS

Home | Current Version | Previous Version | Text Only | Print | Product List | Glossary On
Versions: 1 2 3 4 5 6 7 8 9 10 11 12 13 14 15 16 17 18 19 20 21 22 23 24 25 26 27 28 29 30 31 32 33
000
FTUS44 KTSA 260800 AAB
TAFRVS
TAF AMD
KRVS 260830Z 2609/2706 00000KT 4SM BR SCT006 SCT110
      TEMPO 2609/2613 2SM BR BKN006
     FM261500 21006KT P6SM SCT250
     FM261800 19011KT P6SM SCT100 PROB30 2700/2706 -TSRA BKN050CB=

USA.gov is the U.S. government's official web portal to all federal, state and local government web resources and services.